Time;durP1;ratioP1;P1;durP2;ratioP2;P2;SDS_P1;SDS_P2;PMS_P1;PMS_P2;Temp;Humidity;BMP_temperature;BMP_pressure;BME280_temperature;BME280_humidity;BME280_pressure;Samples;Min_cycle;Max_cycle;Signal;HPM_P1;HPM_P2
2022/09/23 00:02:08;;;;;;;10.48;8.00;;;;;;;8.52;100.00;100673.31;5018577;28;20343;-73
2022/09/23 00:04:36;;;;;;;7.00;5.95;;;;;;;8.42;100.00;100670.06;5020590;28;20195;-73
2022/09/23 00:07:02;;;;;;;7.18;5.60;;;;;;;8.33;100.00;100671.19;5021749;28;20214;-74
2022/09/23 00:09:29;;;;;;;7.22;5.60;;;;;;;8.34;100.00;100661.34;5018231;28;20238;-75
2022/09/23 00:11:55;;;;;;;7.55;6.30;;;;;;;8.34;100.00;100674.75;5023801;28;20287;-73
2022/09/23 00:14:22;;;;;;;7.95;6.60;;;;;;;8.29;100.00;100666.84;5019862;28;20203;-75
2022/09/23 00:16:48;;;;;;;10.57;7.05;;;;;;;8.15;100.00;100671.78;5020846;28;20687;-73
2022/09/23 00:19:15;;;;;;;9.35;6.60;;;;;;;8.09;100.00;100667.47;5020009;28;20202;-74
2022/09/23 00:21:43;;;;;;;7.18;6.30;;;;;;;8.11;100.00;100664.75;5026370;28;20198;-74
2022/09/23 00:24:09;;;;;;;9.20;8.02;;;;;;;8.09;100.00;100667.47;5020975;28;20581;-73
2022/09/23 00:26:36;;;;;;;7.38;6.68;;;;;;;8.09;100.00;100670.16;5039894;28;20588;-74
2022/09/23 00:29:02;;;;;;;9.10;7.47;;;;;;;8.06;100.00;100667.56;5020965;28;20198;-73
2022/09/23 00:31:30;;;;;;;9.43;7.05;;;;;;;8.03;100.00;100667.69;5021251;28;20674;-73
2022/09/23 00:33:58;;;;;;;10.43;7.50;;;;;;;7.97;100.00;100673.22;5026039;28;20206;-73
2022/09/23 00:36:25;;;;;;;8.00;7.20;;;;;;;7.98;100.00;100664.22;5019704;28;20282;-74
2022/09/23 00:38:54;;;;;;;8.38;7.50;;;;;;;7.83;100.00;100659.34;5027444;28;20202;-75
2022/09/23 00:41:21;;;;;;;8.77;7.93;;;;;;;7.86;100.00;100665.50;5020828;28;20669;-74
2022/09/23 00:43:51;;;;;;;10.65;6.95;;;;;;;7.75;100.00;100666.75;5026557;28;20198;-73
2022/09/23 00:46:20;;;;;;;8.23;7.40;;;;;;;7.85;100.00;100669.09;5019739;28;20237;-74
2022/09/23 00:48:49;;;;;;;9.77;7.53;;;;;;;7.86;100.00;100662.81;5025338;28;20198;-73
2022/09/23 00:51:20;;;;;;;7.70;6.95;;;;;;;7.87;100.00;100661.03;5021176;28;20214;-74
2022/09/23 00:53:50;;;;;;;7.93;7.15;;;;;;;7.85;100.00;100662.88;5022997;28;20203;-74
2022/09/23 00:56:20;;;;;;;7.60;6.90;;;;;;;7.77;100.00;100657.72;5024010;28;20924;-75
2022/09/23 00:58:49;;;;;;;9.35;7.53;;;;;;;7.78;100.00;100658.59;5021236;28;20203;-75
2022/09/23 01:01:15;;;;;;;9.43;8.43;;;;;;;7.62;100.00;100650.13;5028432;28;20574;-74
2022/09/23 01:03:45;;;;;;;7.68;6.88;;;;;;;7.69;100.00;100657.09;5034158;28;20258;-74
2022/09/23 01:06:13;;;;;;;8.75;7.32;;;;;;;7.68;100.00;100652.63;5035413;28;20218;-74
2022/09/23 01:08:40;;;;;;;9.77;8.40;;;;;;;7.80;100.00;100654.97;5034923;28;20218;-73
2022/09/23 01:11:18;;;;;;;12.35;9.02;;;;;;;7.86;100.00;100654.75;5022706;28;20291;-73
2022/09/23 01:13:55;;;;;;;9.60;8.18;;;;;;;7.85;100.00;100644.09;5014112;28;20195;-74
2022/09/23 01:16:30;;;;;;;11.68;8.70;;;;;;;7.83;100.00;100648.63;5018604;28;20227;-74
2022/09/23 01:19:05;;;;;;;9.65;8.10;;;;;;;7.87;100.00;100647.63;5021402;28;20203;-75
2022/09/23 01:21:44;;;;;;;14.70;9.50;;;;;;;7.84;100.00;100643.19;5021090;28;20198;-73
2022/09/23 01:24:49;;;;;;;13.40;9.20;;;;;;;7.80;100.00;100643.34;5019459;28;20225;-74
2022/09/23 01:27:47;;;;;;;9.90;8.73;;;;;;;7.70;100.00;100638.25;5020433;28;20210;-74
2022/09/23 01:30:37;;;;;;;10.73;8.52;;;;;;;7.77;100.00;100641.63;5017177;28;20248;-75
2022/09/23 01:33:10;;;;;;;11.02;9.10;;;;;;;7.75;100.00;100639.94;5019329;28;20226;-75
2022/09/23 01:35:48;;;;;;;10.50;8.75;;;;;;;7.82;100.00;100642.38;5015163;28;20226;-76
2022/09/23 01:38:32;;;;;;;14.38;8.70;;;;;;;7.90;100.00;100648.38;5018815;28;20225;-74
2022/09/23 01:41:04;;;;;;;12.07;9.00;;;;;;;7.90;100.00;100634.09;5015506;28;20253;-75
2022/09/23 01:43:37;;;;;;;9.90;8.25;;;;;;;7.96;100.00;100636.59;5015408;28;20206;-75
2022/09/23 01:46:10;;;;;;;10.63;8.60;;;;;;;8.00;100.00;100640.94;5019508;28;20225;-74
2022/09/23 01:48:40;;;;;;;9.57;8.65;;;;;;;8.00;100.00;100640.94;5023060;28;20210;-74
2022/09/23 01:51:12;;;;;;;9.82;8.82;;;;;;;7.98;100.00;100629.38;5032270;28;20243;-73
2022/09/23 01:53:47;;;;;;;13.45;10.00;;;;;;;7.94;100.00;100635.78;5022991;28;20196;-74
2022/09/23 01:56:20;;;;;;;11.05;8.77;;;;;;;7.97;100.00;100632.13;5022165;28;20224;-74
2022/09/23 01:58:52;;;;;;;10.70;9.48;;;;;;;7.96;100.00;100624.97;5017963;28;20273;-73
2022/09/23 02:01:28;;;;;;;12.05;10.13;;;;;;;8.01;100.00;100625.75;5016434;28;20191;-73
2022/09/23 02:04:02;;;;;;;13.48;8.85;;;;;;;7.92;100.00;100616.16;5013575;28;20696;-73
2022/09/23 02:06:34;;;;;;;12.23;9.00;;;;;;;7.92;100.00;100622.41;5017528;28;20324;-74
2022/09/23 02:09:04;;;;;;;12.65;10.02;;;;;;;7.94;100.00;100619.69;5016596;28;20206;-74
2022/09/23 02:11:35;;;;;;;10.88;9.38;;;;;;;7.96;100.00;100625.88;5017504;28;20194;-75
2022/09/23 02:14:06;;;;;;;11.27;10.05;;;;;;;7.91;100.00;100627.81;5018269;28;20199;-75
2022/09/23 02:16:38;;;;;;;12.05;10.50;;;;;;;8.02;100.00;100609.56;5017572;28;20218;-75
2022/09/23 02:19:10;;;;;;;13.52;10.30;;;;;;;7.96;100.00;100622.28;5015727;28;20242;-74
2022/09/23 02:21:41;;;;;;;12.13;9.88;;;;;;;7.88;100.00;100617.19;5018345;28;20206;-74
2022/09/23 02:24:12;;;;;;;12.88;9.35;;;;;;;7.98;100.00;100626.69;5023210;28;20392;-75
2022/09/23 02:26:47;;;;;;;11.43;8.55;;;;;;;7.98;100.00;100618.63;5000308;28;20228;-73
2022/09/23 02:29:20;;;;;;;10.20;8.85;;;;;;;8.09;100.00;100613.81;5017608;28;20221;-74
2022/09/23 02:31:55;;;;;;;10.85;8.63;;;;;;;8.10;100.00;100614.72;5017260;28;20202;-74
2022/09/23 02:34:32;;;;;;;10.77;9.13;;;;;;;8.06;100.00;100610.38;5017772;28;20638;-74
2022/09/23 02:37:09;;;;;;;9.68;8.68;;;;;;;8.06;100.00;100605.88;5019287;28;20222;-73
2022/09/23 02:39:48;;;;;;;12.13;9.13;;;;;;;8.06;100.00;100613.91;5018222;28;20245;-74
2022/09/23 02:42:21;;;;;;;9.38;8.48;;;;;;;8.10;100.00;100610.22;5018558;28;20198;-76
2022/09/23 02:44:48;;;;;;;10.75;9.32;;;;;;;8.09;100.00;100607.56;5026084;28;20212;-75
2022/09/23 02:47:22;;;;;;;12.43;9.77;;;;;;;7.98;100.00;100612.41;5017516;28;20229;-74
2022/09/23 02:49:49;;;;;;;9.40;8.45;;;;;;;7.99;100.00;100607.00;5011342;28;20189;-75
2022/09/23 02:52:16;;;;;;;9.00;8.10;;;;;;;7.95;100.00;100613.38;5018298;28;20714;-77
2022/09/23 02:54:43;;;;;;;10.65;8.70;;;;;;;7.94;100.00;100609.81;5020939;28;20206;-75
2022/09/23 02:57:10;;;;;;;8.85;7.95;;;;;;;7.96;100.00;100601.75;5017244;28;20255;-75
2022/09/23 02:59:37;;;;;;;11.13;8.30;;;;;;;7.89;100.00;100594.78;5032974;28;20219;-75
2022/09/23 03:02:16;;;;;;;8.95;8.15;;;;;;;7.85;100.00;100590.47;5025685;28;20258;-74
2022/09/23 03:04:55;;;;;;;8.65;7.75;;;;;;;7.78;100.00;100594.25;5028786;28;20290;-73
2022/09/23 03:07:31;;;;;;;9.55;7.63;;;;;;;7.73;100.00;100589.03;5023331;28;20218;-75
2022/09/23 03:10:07;;;;;;;9.98;8.40;;;;;;;7.76;100.00;100583.59;5019844;28;20230;-74
2022/09/23 03:12:40;;;;;;;9.07;8.18;;;;;;;7.69;100.00;100590.06;5019767;28;20201;-73
2022/09/23 03:15:18;;;;;;;11.18;8.63;;;;;;;7.79;100.00;100585.28;5019470;28;20664;-74
2022/09/23 03:17:55;;;;;;;9.23;8.32;;;;;;;7.81;100.00;100576.28;5021866;28;20228;-73
2022/09/23 03:20:29;;;;;;;9.55;8.55;;;;;;;7.84;100.00;100577.97;5021673;28;20194;-75
2022/09/23 03:22:59;;;;;;;11.13;7.68;;;;;;;7.67;100.00;100579.38;5019864;28;20202;-74
2022/09/23 03:25:30;;;;;;;10.27;8.68;;;;;;;7.79;100.00;100574.56;5026905;28;20198;-75
2022/09/23 03:27:59;;;;;;;9.05;8.07;;;;;;;7.79;100.00;100578.13;5022429;28;20283;-75
2022/09/23 03:30:27;;;;;;;9.73;8.52;;;;;;;7.80;100.00;100577.22;5015362;28;20592;-76
2022/09/23 03:32:57;;;;;;;14.00;8.93;;;;;;;7.79;100.00;100580.81;5016337;28;20217;-74
2022/09/23 03:35:30;;;;;;;10.40;9.25;;;;;;;7.84;100.00;100580.66;5018247;28;20199;-75
2022/09/23 03:38:03;;;;;;;9.52;8.52;;;;;;;7.88;100.00;100572.47;5018403;28;20229;-75
2022/09/23 03:40:34;;;;;;;10.77;8.48;;;;;;;7.77;100.00;100577.28;5021758;28;20531;-74
2022/09/23 03:43:03;;;;;;;11.50;8.70;;;;;;;7.81;100.00;100578.09;5016472;28;20194;-74
2022/09/23 03:45:33;;;;;;;10.98;8.68;;;;;;;7.88;100.00;100574.28;5015452;28;20286;-74
2022/09/23 03:48:01;;;;;;;17.25;8.20;;;;;;;7.97;100.00;100571.31;5016675;28;20247;-75
2022/09/23 03:50:29;;;;;;;9.15;8.10;;;;;;;7.81;100.00;100572.72;5020975;28;20200;-75
2022/09/23 03:52:55;;;;;;;10.15;8.63;;;;;;;7.82;100.00;100569.09;5019137;28;20286;-76
2022/09/23 03:55:22;;;;;;;8.70;7.90;;;;;;;7.96;100.00;100572.25;5026100;28;20205;-75
2022/09/23 03:57:51;;;;;;;9.80;8.43;;;;;;;7.85;100.00;100567.22;5020867;28;20234;-74
2022/09/23 04:00:18;;;;;;;10.30;8.95;;;;;;;7.92;100.00;100562.53;5021489;28;20195;-74
2022/09/23 04:02:45;;;;;;;11.23;8.70;;;;;;;7.91;100.00;100558.06;5023173;28;20210;-74
2022/09/23 04:05:13;;;;;;;13.25;9.25;;;;;;;7.85;100.00;100552.94;5021512;28;20198;-74
2022/09/23 04:07:41;;;;;;;8.80;7.90;;;;;;;7.78;100.00;100556.72;5023239;28;20329;-74
2022/09/23 04:10:09;;;;;;;8.88;7.93;;;;;;;7.86;100.00;100557.34;5021063;28;20239;-74
2022/09/23 04:12:36;;;;;;;11.10;8.30;;;;;;;7.84;100.00;100556.53;5018530;28;20207;-75
2022/09/23 04:15:03;;;;;;;8.30;7.40;;;;;;;7.92;100.00;100551.81;5023467;28;20192;-75
2022/09/23 04:17:33;;;;;;;9.77;7.97;;;;;;;7.86;100.00;100552.00;5022065;28;20282;-74
2022/09/23 04:19:59;;;;;;;8.65;7.70;;;;;;;7.79;100.00;100547.75;5028456;28;20202;-74
2022/09/23 04:22:26;;;;;;;7.50;6.80;;;;;;;7.81;100.00;100552.13;5023182;28;20195;-73
2022/09/23 04:24:55;;;;;;;8.65;7.30;;;;;;;7.79;100.00;100554.00;5024366;28;20320;-73
2022/09/23 04:27:23;;;;;;;12.10;8.30;;;;;;;7.76;100.00;100553.22;5023811;28;20245;-74
2022/09/23 04:29:50;;;;;;;8.10;7.30;;;;;;;7.75;100.00;100549.63;5025240;28;20271;-73
2022/09/23 04:32:16;;;;;;;10.77;7.50;;;;;;;7.78;100.00;100545.97;5033328;28;20189;-73
2022/09/23 04:34:49;;;;;;;8.57;7.38;;;;;;;7.82;100.00;100550.31;5027908;28;20583;-73
2022/09/23 04:37:16;;;;;;;8.50;7.70;;;;;;;7.90;100.00;100548.28;5025635;28;20215;-74
2022/09/23 04:39:43;;;;;;;10.63;7.97;;;;;;;7.93;100.00;100550.88;5029897;28;20225;-73
2022/09/23 04:42:11;;;;;;;10.15;8.63;;;;;;;7.99;100.00;100555.16;5020722;28;20202;-75
2022/09/23 04:44:38;;;;;;;19.00;14.00;;;;;;;8.04;100.00;100551.41;5019422;28;20654;-73
2022/09/23 04:47:05;;;;;;;10.90;9.70;;;;;;;8.06;100.00;100552.22;5036038;23;20218;-74
2022/09/23 04:49:32;;;;;;;8.40;7.60;;;;;;;8.07;100.00;100551.31;5041377;28;20196;-76
2022/09/23 04:51:59;;;;;;;9.18;7.53;;;;;;;7.96;100.00;100556.16;5039600;28;20209;-74
2022/09/23 04:54:26;;;;;;;10.25;9.18;;;;;;;8.04;100.00;100545.16;5039181;28;20202;-74
2022/09/23 04:56:52;;;;;;;13.07;8.82;;;;;;;8.02;100.00;100552.38;5040102;28;20666;-74
2022/09/23 04:59:20;;;;;;;9.38;8.13;;;;;;;8.02;100.00;100545.19;5037221;28;20229;-75
2022/09/23 05:01:46;;;;;;;10.13;8.70;;;;;;;8.10;100.00;100543.16;5036397;28;20202;-74
2022/09/23 05:04:14;;;;;;;12.10;8.75;;;;;;;8.06;100.00;100541.50;5038880;28;20209;-75
2022/09/23 05:06:43;;;;;;;16.90;12.77;;;;;;;8.20;100.00;100548.22;5037079;28;20245;-75
2022/09/23 05:09:14;;;;;;;11.57;9.75;;;;;;;8.25;100.00;100548.94;5041915;28;20270;-75
2022/09/23 05:11:41;;;;;;;12.63;8.30;;;;;;;8.23;100.00;100546.31;5041836;28;20247;-75
2022/09/23 05:14:07;;;;;;;9.90;8.15;;;;;;;8.16;100.00;100547.44;5041017;28;20202;-75
2022/09/23 05:16:35;;;;;;;12.75;9.63;;;;;;;8.17;100.00;100545.66;5042086;28;20194;-75
2022/09/23 05:19:02;;;;;;;11.27;8.20;;;;;;;8.20;100.00;100545.53;5040870;28;20656;-74
2022/09/23 05:21:30;;;;;;;14.52;8.88;;;;;;;8.22;100.00;100546.38;5039873;28;20233;-75
2022/09/23 05:23:59;;;;;;;11.35;9.63;;;;;;;8.28;100.00;100549.72;5039664;28;20194;-75
2022/09/23 05:26:27;;;;;;;9.00;7.93;;;;;;;8.34;100.00;100541.47;5039319;28;20289;-75
2022/09/23 05:28:55;;;;;;;10.07;9.00;;;;;;;8.42;100.00;100551.09;5038054;28;20285;-76
2022/09/23 05:31:23;;;;;;;20.55;18.35;;;;;;;8.50;100.00;100544.53;5038549;28;20201;-77
2022/09/23 05:33:52;;;;;;;20.55;15.40;;;;;;;8.60;100.00;100538.84;5041050;28;20202;-75
2022/09/23 05:36:20;;;;;;;10.60;9.13;;;;;;;8.62;100.00;100543.22;5037370;28;20212;-74
2022/09/23 05:38:48;;;;;;;11.43;7.63;;;;;;;8.70;100.00;100546.50;5038639;28;20601;-74
2022/09/23 05:41:15;;;;;;;9.38;8.43;;;;;;;8.82;100.00;100552.38;5036780;28;20206;-73
2022/09/23 05:43:41;;;;;;;17.35;12.90;;;;;;;9.05;100.00;100556.94;5039217;28;20219;-74
2022/09/23 05:46:11;;;;;;;20.95;16.67;;;;;;;9.23;100.00;100548.19;5038306;28;20205;-75
2022/09/23 05:48:39;;;;;;;14.63;9.48;;;;;;;9.42;100.00;100552.88;5046874;28;20266;-75
2022/09/23 05:51:11;;;;;;;9.25;7.70;;;;;;;9.48;100.00;100558.03;5040833;28;20227;-72
2022/09/23 05:53:39;;;;;;;12.45;8.10;;;;;;;9.57;100.00;100552.28;5037740;28;20196;-74
2022/09/23 05:56:06;;;;;;;12.15;7.97;;;;;;;9.72;100.00;100554.38;5034550;28;20225;-74
2022/09/23 05:58:33;;;;;;;8.65;7.68;;;;;;;9.72;100.00;100559.75;5029729;28;20225;-73
2022/09/23 06:00:59;;;;;;;9.60;7.95;;;;;;;9.77;100.00;100552.38;5034324;28;20203;-74
2022/09/23 06:03:26;;;;;;;7.90;7.10;;;;;;;9.94;100.00;100551.69;5034555;28;20546;-74
2022/09/23 06:05:53;;;;;;;9.10;8.20;;;;;;;10.12;100.00;100547.38;5031383;28;20294;-74
2022/09/23 06:08:23;;;;;;;7.68;6.88;;;;;;;10.29;100.00;100554.78;5034501;28;20241;-75
2022/09/23 06:10:50;;;;;;;9.57;7.47;;;;;;;10.48;100.00;100552.19;5031140;28;20201;-74
2022/09/23 06:13:17;;;;;;;8.05;7.25;;;;;;;10.69;100.00;100552.22;5033412;28;20197;-76
2022/09/23 06:15:43;;;;;;;10.40;7.15;;;;;;;10.97;100.00;100549.19;5031853;28;20194;-73
2022/09/23 06:18:10;;;;;;;8.57;7.30;;;;;;;11.09;100.00;100554.03;5032337;28;20219;-72
2022/09/23 06:20:37;;;;;;;10.70;7.32;;;;;;;11.23;100.00;100545.31;5031940;28;20300;-73
2022/09/23 06:23:05;;;;;;;7.75;6.47;;;;;;;11.25;100.00;100540.72;5029954;28;20197;-75
2022/09/23 06:25:34;;;;;;;7.88;7.07;;;;;;;11.26;100.00;100542.44;5035047;28;20216;-75
2022/09/23 06:28:01;;;;;;;8.75;7.72;;;;;;;11.27;100.00;100545.09;5044236;28;20232;-73
2022/09/23 06:30:28;;;;;;;9.98;6.22;;;;;;;11.29;100.00;100536.06;5028920;28;20209;-74
2022/09/23 06:32:57;;;;;;;7.78;6.60;;;;;;;11.36;100.00;100537.53;5030309;28;20199;-73
2022/09/23 06:35:26;;;;;;;8.40;7.50;;;;;;;11.29;100.00;100536.06;5029784;28;20198;-76
2022/09/23 06:37:53;;;;;;;7.70;6.90;;;;;;;11.35;100.00;100536.66;5029295;28;20221;-74
2022/09/23 06:40:21;;;;;;;9.13;6.57;;;;;;;11.40;100.00;100531.94;5033947;28;20284;-72
2022/09/23 06:42:57;;;;;;;6.95;6.35;;;;;;;11.52;100.00;100527.78;5033603;28;20196;-73
2022/09/23 06:45:24;;;;;;;8.43;6.97;;;;;;;11.56;100.00;100536.59;5037543;28;20245;-75
2022/09/23 06:47:56;;;;;;;8.63;7.80;;;;;;;11.58;100.00;100532.00;5034463;28;20226;-74
2022/09/23 06:50:23;;;;;;;9.55;7.25;;;;;;;11.69;100.00;100537.78;5038127;28;20186;-75
2022/09/23 06:52:54;;;;;;;8.60;7.05;;;;;;;11.83;100.00;100537.97;5032683;28;20206;-73
2022/09/23 06:55:22;;;;;;;7.90;7.10;;;;;;;11.99;100.00;100538.13;5031645;28;20289;-75
2022/09/23 06:57:50;;;;;;;8.60;6.88;;;;;;;12.18;100.00;100540.78;5032695;28;20222;-74
2022/09/23 07:00:17;;;;;;;10.27;7.88;;;;;;;12.37;100.00;100529.06;5032002;28;20699;-73
2022/09/23 07:02:43;;;;;;;8.13;7.32;;;;;;;12.52;100.00;100523.75;5034247;28;20201;-74
2022/09/23 07:05:10;;;;;;;8.77;7.07;;;;;;;12.61;98.62;100533.19;5035728;28;20211;-76
2022/09/23 07:07:38;;;;;;;8.50;7.25;;;;;;;12.79;96.75;100536.78;5032027;28;20314;-75
2022/09/23 07:10:06;;;;;;;9.02;8.13;;;;;;;12.82;94.02;100538.44;5034736;28;20204;-73
2022/09/23 07:12:33;;;;;;;6.93;6.22;;;;;;;13.02;92.48;100540.09;5033768;28;20206;-74
2022/09/23 07:15:00;;;;;;;8.23;7.38;;;;;;;13.29;91.66;100543.19;5033401;28;20208;-75
2022/09/23 07:17:27;;;;;;;7.55;6.85;;;;;;;13.73;87.82;100540.72;5034685;28;20300;-74
2022/09/23 07:19:54;;;;;;;6.78;6.03;;;;;;;14.08;84.01;100539.66;5036296;28;20295;-74
2022/09/23 07:22:23;;;;;;;8.60;6.82;;;;;;;14.52;81.85;100547.03;5030973;28;20607;-76
2022/09/23 07:24:50;;;;;;;7.75;6.90;;;;;;;14.88;78.49;100540.38;5026039;28;20278;-74
2022/09/23 07:27:18;;;;;;;14.10;9.43;;;;;;;15.20;75.72;100544.69;5036850;28;20214;-75
2022/09/23 07:29:45;;;;;;;15.43;10.05;;;;;;;15.83;70.58;100545.28;5030576;28;20253;-73
2022/09/23 07:32:14;;;;;;;10.15;8.35;;;;;;;15.98;67.99;100538.84;5031663;28;20296;-72
2022/09/23 07:34:40;;;;;;;8.35;6.55;;;;;;;16.33;67.27;100534.78;5031684;28;20194;-75
2022/09/23 07:37:07;;;;;;;8.45;6.10;;;;;;;16.22;65.35;100532.75;5029660;28;20773;-76
2022/09/23 07:39:35;;;;;;;8.07;6.80;;;;;;;16.26;65.76;100534.31;5032015;28;20222;-74
2022/09/23 07:42:04;;;;;;;6.72;6.05;;;;;;;16.50;64.71;100531.75;5033003;28;20205;-77
2022/09/23 07:44:54;;;;;;;7.00;6.38;;;;;;;16.60;64.04;100523.88;5032907;28;20198;-73
2022/09/23 07:47:22;;;;;;;7.45;6.25;;;;;;;16.73;62.50;100532.91;5013860;28;20233;-73
2022/09/23 07:49:48;;;;;;;7.53;6.75;;;;;;;17.16;61.20;100538.09;5028311;28;20324;-75
2022/09/23 07:52:15;;;;;;;6.90;5.85;;;;;;;17.23;61.51;100544.88;5032825;28;20201;-73
2022/09/23 07:54:42;;;;;;;6.78;5.85;;;;;;;17.50;58.84;100547.47;5030411;28;20202;-74
2022/09/23 07:57:08;;;;;;;6.93;5.90;;;;;;;17.87;58.45;100546.66;5033036;28;20229;-73
2022/09/23 07:59:35;;;;;;;9.27;6.47;;;;;;;18.23;57.41;100543.06;5028998;28;20222;-74
2022/09/23 08:02:02;;;;;;;6.55;5.93;;;;;;;18.57;55.78;100539.63;5030444;28;20458;-75
2022/09/23 08:04:32;;;;;;;6.20;5.60;;;;;;;19.31;54.01;100542.94;5031965;28;20209;-73
2022/09/23 08:07:01;;;;;;;8.33;5.70;;;;;;;20.22;49.53;100552.00;5033209;28;20449;-75
2022/09/23 08:09:30;;;;;;;6.50;4.90;;;;;;;21.00;47.11;100543.47;5033406;28;20457;-73
2022/09/23 08:11:57;;;;;;;5.73;5.13;;;;;;;21.84;45.07;100554.34;5032129;28;20484;-73
2022/09/23 08:14:24;;;;;;;7.70;5.10;;;;;;;22.05;43.91;100547.94;5032264;28;20479;-73
2022/09/23 08:16:51;;;;;;;7.33;5.50;;;;;;;23.19;41.71;100543.69;5035275;28;20441;-73
2022/09/23 08:19:18;;;;;;;5.20;4.70;;;;;;;23.36;41.30;100542.06;5031783;28;20850;-73
2022/09/23 08:21:47;;;;;;;6.63;4.40;;;;;;;23.35;41.04;100542.19;5031036;28;21040;-73
2022/09/23 08:24:16;;;;;;;5.00;4.50;;;;;;;23.42;40.44;100546.94;5033073;28;20437;-73
2022/09/23 08:26:42;;;;;;;5.33;4.87;;;;;;;24.13;39.94;100546.38;5033548;28;20444;-75
2022/09/23 08:29:12;;;;;;;4.60;4.20;;;;;;;24.45;38.91;100549.66;5031949;28;20456;-72
2022/09/23 08:31:38;;;;;;;7.93;4.50;;;;;;;25.05;37.89;100549.00;5030960;28;20984;-73
2022/09/23 08:34:05;;;;;;;5.17;4.77;;;;;;;24.94;37.53;100555.63;5029891;28;20448;-72
2022/09/23 08:36:32;;;;;;;6.10;4.53;;;;;;;24.76;37.62;100548.28;5036944;28;20490;-74
2022/09/23 08:39:00;;;;;;;7.67;3.87;;;;;;;24.83;37.33;100553.13;5043003;28;20559;-74
2022/09/23 08:41:38;;;;;;;6.70;4.60;;;;;;;25.15;36.99;100542.38;5042536;28;20464;-74
2022/09/23 08:44:13;;;;;;;4.40;3.97;;;;;;;24.67;37.33;100542.81;5038608;28;20452;-73
2022/09/23 08:46:46;;;;;;;4.70;4.30;;;;;;;24.28;37.64;100543.94;5029789;28;20554;-72
2022/09/23 08:49:22;;;;;;;4.57;4.17;;;;;;;24.77;37.21;100538.13;5033649;28;20472;-75
2022/09/23 08:51:53;;;;;;;4.20;3.80;;;;;;;24.92;37.10;100543.94;5032463;28;20459;-75
2022/09/23 08:54:21;;;;;;;4.53;4.13;;;;;;;25.59;36.44;100544.25;5033301;28;21254;-74
2022/09/23 08:56:51;;;;;;;4.73;4.30;;;;;;;27.07;34.53;100548.34;5036494;28;20440;-74
2022/09/23 08:59:24;;;;;;;4.00;3.60;;;;;;;28.22;33.16;100548.03;5034997;28;20476;-76
2022/09/23 09:01:53;;;;;;;4.57;4.07;;;;;;;28.48;32.36;100543.06;5036789;28;20523;-74
2022/09/23 09:04:26;;;;;;;5.33;4.33;;;;;;;26.81;33.41;100545.72;5033824;28;20976;-73
2022/09/23 09:06:56;;;;;;;7.13;3.40;;;;;;;27.06;33.54;100532.78;5038038;28;20459;-77
2022/09/23 09:09:30;;;;;;;4.40;3.70;;;;;;;26.93;33.10;100533.31;5047221;28;20452;-77
2022/09/23 09:12:03;;;;;;;4.30;3.20;;;;;;;27.05;33.22;100531.06;5037522;28;20453;-76
2022/09/23 09:14:36;;;;;;;5.63;3.23;;;;;;;26.61;33.35;100531.38;5019658;28;20912;-74
2022/09/23 09:17:06;;;;;;;4.50;4.10;;;;;;;27.36;32.92;100519.28;5035213;28;21155;-74
2022/09/23 09:20:00;;;;;;;7.57;3.27;;;;;;;26.65;33.21;100521.72;5033908;28;20480;-75
2022/09/23 09:22:46;;;;;;;3.13;2.70;;;;;;;28.38;32.02;100524.94;5019297;28;20903;-75
2022/09/23 09:25:24;;;;;;;3.60;2.83;;;;;;;28.75;30.87;100526.09;5043082;28;20452;-74
2022/09/23 09:27:52;;;;;;;4.47;3.80;;;;;;;27.95;31.69;100535.53;5035427;28;20464;-75
2022/09/23 09:30:19;;;;;;;5.40;3.40;;;;;;;28.14;31.31;100525.97;5031653;28;20821;-73
2022/09/23 09:32:50;;;;;;;3.40;2.90;;;;;;;29.65;29.78;100534.44;5033763;28;20467;-75
2022/09/23 09:35:25;;;;;;;3.00;2.67;;;;;;;30.41;29.25;100527.78;5035210;28;20845;-74
2022/09/23 09:37:52;;;;;;;4.10;2.80;;;;;;;28.84;30.06;100516.69;5033783;28;20476;-72
2022/09/23 09:40:20;;;;;;;3.10;2.80;;;;;;;26.55;32.50;100512.75;5035166;28;20526;-74
2022/09/23 09:42:49;;;;;;;3.33;2.70;;;;;;;27.43;31.97;100510.13;5035039;28;20511;-75
2022/09/23 09:45:25;;;;;;;2.63;2.40;;;;;;;27.58;31.86;100515.75;5033022;28;20510;-74
2022/09/23 09:48:01;;;;;;;3.23;2.93;;;;;;;25.82;33.83;100505.91;5033067;28;20491;-73
2022/09/23 09:50:46;;;;;;;2.70;2.50;;;;;;;27.17;32.07;100492.84;5032070;28;20502;-73
2022/09/23 09:53:34;;;;;;;3.20;2.90;;;;;;;27.55;31.80;100488.47;5019917;28;20803;-74
2022/09/23 09:56:06;;;;;;;3.73;2.60;;;;;;;29.15;29.84;100486.09;5033419;28;20520;-73
2022/09/23 09:58:44;;;;;;;4.37;2.53;;;;;;;27.29;31.52;100480.41;5033184;28;20476;-73
2022/09/23 10:01:19;;;;;;;3.23;2.70;;;;;;;26.44;33.17;100478.00;5032987;28;20490;-76
2022/09/23 10:03:46;;;;;;;3.30;3.00;;;;;;;29.08;29.99;100487.88;5034439;28;20451;-74
2022/09/23 10:06:23;;;;;;;3.53;2.70;;;;;;;28.39;30.93;100477.66;5033488;28;20460;-74
2022/09/23 10:09:09;;;;;;;2.57;2.37;;;;;;;30.01;29.09;100483.72;5032018;28;20472;-73
2022/09/23 10:11:38;;;;;;;2.97;2.10;;;;;;;28.09;30.50;100473.03;5033948;28;20425;-73
2022/09/23 10:14:11;;;;;;;3.10;2.27;;;;;;;26.00;32.65;100473.63;5033713;28;20946;-74
2022/09/23 10:16:38;;;;;;;4.10;3.23;;;;;;;27.92;31.47;100472.25;5031718;28;21021;-73
2022/09/23 10:19:14;;;;;;;3.50;2.80;;;;;;;25.78;33.31;100474.19;5033413;28;20461;-74
2022/09/23 10:21:41;;;;;;;4.47;3.10;;;;;;;25.44;34.37;100475.09;5033255;28;20480;-74
2022/09/23 10:24:08;;;;;;;3.30;2.77;;;;;;;26.65;32.93;100466.47;5030443;28;20458;-73
2022/09/23 10:26:42;;;;;;;3.17;2.87;;;;;;;27.66;31.10;100485.31;5024645;28;20821;-72
2022/09/23 10:29:23;;;;;;;3.67;2.43;;;;;;;28.40;30.67;100478.53;5030708;28;20468;-74
2022/09/23 10:31:51;;;;;;;3.20;2.70;;;;;;;27.50;31.34;100474.31;5028983;28;20455;-73
2022/09/23 10:34:24;;;;;;;2.90;2.40;;;;;;;29.04;30.33;100473.53;5032034;28;20872;-73
2022/09/23 10:36:55;;;;;;;3.00;2.70;;;;;;;27.04;32.41;100460.22;5033036;28;20424;-74
2022/09/23 10:48:12;;;;;;;6.47;2.30;;;;;;;27.75;31.36;100463.16;5027396;28;20519;-75
2022/09/23 10:50:44;;;;;;;2.50;2.30;;;;;;;26.87;32.29;100455.78;5032744;28;20454;-75
2022/09/23 10:53:18;;;;;;;2.30;2.10;;;;;;;27.93;31.38;100457.34;5032101;28;20456;-76
2022/09/23 10:55:59;;;;;;;2.40;2.20;;;;;;;27.70;30.97;100446.22;5033301;28;20468;-76
2022/09/23 10:58:46;;;;;;;4.67;2.43;;;;;;;27.35;32.10;100454.81;5039703;28;20448;-75
2022/09/23 11:01:26;;;;;;;4.60;2.67;;;;;;;27.48;31.70;100445.97;5057951;28;20457;-76
2022/09/23 11:04:31;;;;;;;2.57;2.37;;;;;;;28.22;30.67;100440.06;5057145;28;20502;-75
2022/09/23 11:07:13;;;;;;;2.27;2.07;;;;;;;29.43;29.13;100441.91;5037519;28;20414;-77
2022/09/23 11:09:54;;;;;;;4.50;2.33;;;;;;;30.81;27.89;100436.47;5051238;28;20444;-75
2022/09/23 11:12:31;;;;;;;2.30;2.10;;;;;;;29.14;29.04;100436.38;5049734;28;20455;-76
2022/09/23 11:15:17;;;;;;;2.73;2.40;;;;;;;27.52;30.80;100429.88;5046301;28;20484;-76
2022/09/23 11:18:11;;;;;;;3.60;2.93;;;;;;;26.70;32.07;100430.91;5040917;28;20612;-75
2022/09/23 11:20:47;;;;;;;4.40;3.30;;;;;;;26.18;32.95;100418.25;4971413;28;20497;-74
2022/09/23 11:23:53;;;;;;;4.67;2.87;;;;;;;24.97;35.12;100412.09;4974716;28;20451;-75
2022/09/23 11:26:34;;;;;;;3.10;2.80;;;;;;;24.81;35.47;100412.00;4916084;29;20454;-76
2022/09/23 11:29:30;;;;;;;3.40;2.57;;;;;;;24.73;35.83;100410.88;4911166;29;20492;-76
2022/09/23 11:32:14;;;;;;;3.33;2.80;;;;;;;25.07;35.03;100401.78;4917161;29;20563;-77
2022/09/23 11:34:56;;;;;;;3.30;3.00;;;;;;;25.91;34.08;100402.00;4924712;29;20450;-75
2022/09/23 11:37:28;;;;;;;2.97;2.70;;;;;;;27.23;32.37;100396.28;4920003;29;20462;-75
2022/09/23 11:39:59;;;;;;;6.90;3.03;;;;;;;27.30;32.20;100392.81;4918147;29;20472;-75
2022/09/23 11:42:31;;;;;;;3.30;2.83;;;;;;;27.78;31.50;100404.69;4922440;29;20485;-74
2022/09/23 11:45:03;;;;;;;4.67;2.90;;;;;;;26.39;33.64;100390.16;4923510;29;20510;-75
2022/09/23 11:47:36;;;;;;;3.00;2.70;;;;;;;26.58;34.30;100388.13;4923138;29;20572;-77
2022/09/23 11:50:11;;;;;;;3.73;2.97;;;;;;;27.11;32.72;100383.84;4901919;29;20487;-77